createdAt,value
2019-01-27T06:26:01.314Z,0.1
2019-01-27T06:28:01.090Z,0.2
2019-01-27T06:29:01.089Z,0.3
2019-01-27T06:30:01.087Z,0.3
2019-01-27T06:31:01.236Z,0.4
2019-01-27T06:32:01.093Z,0.5
2019-01-27T06:34:01.223Z,0.6
2019-01-27T06:35:01.092Z,0.7
2019-01-27T06:36:01.259Z,0.8
2019-01-27T06:37:01.093Z,0.9
2019-01-27T06:38:06.096Z,1.1
2019-01-27T06:39:01.094Z,1.2
2019-01-27T06:40:01.148Z,1.4
2019-01-27T06:41:01.235Z,1.5
2019-01-27T06:42:01.100Z,1.7
2019-01-27T06:43:06.098Z,1.9
2019-01-27T06:44:01.091Z,2.1
2019-01-27T06:45:01.099Z,2.3
2019-01-27T06:46:01.269Z,2.7
2019-01-27T06:47:01.092Z,3.1
2019-01-27T06:48:01.118Z,3.7
2019-01-27T06:49:01.092Z,4.3
2019-01-27T06:50:01.098Z,5.1
2019-01-27T06:51:01.236Z,6.1
2019-01-27T06:52:01.098Z,7.3
2019-01-27T06:53:06.101Z,8.8
2019-01-27T06:54:01.095Z,10.7
2019-01-27T06:55:02.173Z,12.9
2019-01-27T06:56:01.241Z,15.3
2019-01-27T06:57:01.099Z,18.4
2019-01-27T06:58:06.096Z,21.9
2019-01-27T06:59:02.012Z,26.1
2019-01-27T07:00:01.101Z,31.3
2019-01-27T07:01:01.307Z,36.6
2019-01-27T07:02:01.123Z,42.1
2019-01-27T07:03:01.096Z,48.7
2019-01-27T07:04:01.098Z,56.8
2019-01-27T07:05:01.101Z,66.7
2019-01-27T07:06:01.283Z,77.1
2019-01-27T07:07:01.105Z,87.5
2019-01-27T07:08:01.102Z,99.2
2019-01-27T07:09:01.101Z,112.6
2019-01-27T07:11:01.327Z,128.0
2019-01-27T07:12:01.091Z,141.7
2019-01-27T07:13:01.087Z,155.8
2019-01-27T07:14:01.089Z,171.1
2019-01-27T07:15:01.091Z,186.6
2019-01-27T07:16:01.239Z,204.3
2019-01-27T07:17:01.090Z,223.2
2019-01-27T07:18:01.094Z,241.2
2019-01-27T07:19:01.102Z,263.9
2019-01-27T07:20:06.093Z,287.5
2019-01-27T07:21:01.234Z,313.9
2019-01-27T07:22:01.097Z,341.5
2019-01-27T07:23:01.093Z,368.6
2019-01-27T07:24:01.096Z,398.1
2019-01-27T07:25:06.099Z,427.9
2019-01-27T07:26:01.241Z,463.0
2019-01-27T07:27:01.095Z,498.1
2019-01-27T07:28:01.094Z,534.8
2019-01-27T07:29:01.096Z,582.5
2019-01-27T07:30:01.094Z,630.7
2019-01-27T07:31:01.243Z,684.5
2019-01-27T07:32:01.125Z,740.7
2019-01-27T07:33:01.093Z,803.6
2019-01-27T07:34:01.093Z,875.5
2019-01-27T07:35:01.098Z,956.5
2019-01-27T07:36:01.945Z,1080.1
2019-01-27T07:37:06.099Z,1208.8
2019-01-27T07:38:01.096Z,1318.4
2019-01-27T07:39:01.101Z,1416.8
2019-01-27T07:40:01.094Z,1505.9
2019-01-27T07:41:01.247Z,1565.5
2019-01-27T07:42:06.097Z,1597.3
2019-01-27T07:43:01.101Z,1617.5
2019-01-27T07:44:01.135Z,1627.8
2019-01-27T07:45:01.098Z,1641.1
2019-01-27T07:46:02.505Z,1653.3
2019-01-27T07:47:01.098Z,1671.1
2019-01-27T07:48:01.098Z,1693.8
2019-01-27T07:49:01.102Z,1709.3
2019-01-27T07:50:01.096Z,1720.9
2019-01-27T07:51:01.237Z,1707.2
2019-01-27T07:52:01.125Z,1712.7
2019-01-27T07:53:01.100Z,1764.8
2019-01-27T07:54:01.096Z,1846.5
2019-01-27T07:55:01.103Z,1942.7
2019-01-27T07:56:01.241Z,2071.2
2019-01-27T07:57:01.123Z,2242.7
2019-01-27T07:58:01.133Z,2420.9
2019-01-27T07:59:01.103Z,2590.5
2019-01-27T08:00:01.163Z,2748.5
2019-01-27T08:01:01.244Z,2894.8
2019-01-27T08:02:01.101Z,3053.8
2019-01-27T08:03:01.149Z,3205.5
2019-01-27T08:04:01.101Z,3389.0
2019-01-27T08:05:01.108Z,3607.2
2019-01-27T08:06:01.246Z,3830.6
2019-01-27T08:07:01.102Z,4090.1
2019-01-27T08:08:01.140Z,4351.3
2019-01-27T08:09:01.105Z,4632.5
2019-01-27T08:10:01.102Z,4939.1
2019-01-27T08:11:01.242Z,5280.7
2019-01-27T08:13:01.089Z,5543.7
2019-01-27T08:14:01.086Z,5808.9
2019-01-27T08:15:01.089Z,6072.7
2019-01-27T08:16:01.165Z,6380.7
2019-01-27T08:17:01.289Z,6656.3
2019-01-27T08:18:01.088Z,6880.1
2019-01-27T08:19:01.090Z,7112.7
2019-01-27T08:20:01.093Z,7313.1
2019-01-27T08:21:01.091Z,7485.4
2019-01-27T08:22:01.244Z,7521.2
2019-01-27T08:23:01.125Z,7478.8
2019-01-27T08:24:01.094Z,7460.5
2019-01-27T08:25:01.095Z,7496.9
2019-01-27T08:26:01.100Z,7584.3
2019-01-27T08:27:01.235Z,7672.8
2019-01-27T08:28:01.128Z,7863.1
2019-01-27T08:29:01.092Z,8023.4
2019-01-27T08:30:01.094Z,8196.3
2019-01-27T08:31:01.098Z,8320.7
2019-01-27T08:32:01.307Z,8460.2
2019-01-27T08:33:01.127Z,8582.1
2019-01-27T08:34:01.092Z,8807.9
2019-01-27T08:35:01.105Z,9100.2
2019-01-27T08:36:01.094Z,9303.7
2019-01-27T08:37:01.260Z,9592.5
2019-01-27T08:38:01.130Z,9856.4
2019-01-27T08:39:01.093Z,9912.3
2019-01-27T08:40:01.096Z,9839.7
2019-01-27T08:41:01.291Z,9638.2
2019-01-27T08:42:01.235Z,9433.3
2019-01-27T08:43:01.127Z,9186.3
2019-01-27T08:44:01.093Z,8974.5
2019-01-27T08:45:01.098Z,8778.3
2019-01-27T08:46:01.102Z,8599.2
2019-01-27T08:47:01.236Z,8378.6
2019-01-27T08:48:01.127Z,8182.1
2019-01-27T08:49:01.097Z,7885.7
2019-01-27T08:50:02.112Z,7523.9
2019-01-27T08:51:01.093Z,7248.1
2019-01-27T08:52:01.239Z,7052.4
2019-01-27T08:53:01.138Z,6956.6
2019-01-27T08:54:01.097Z,7106.1
2019-01-27T08:55:01.096Z,7465.4
2019-01-27T08:56:01.096Z,8106.4
2019-01-27T08:57:01.241Z,8898.8
2019-01-27T08:58:01.135Z,9810.9
2019-01-27T08:59:01.222Z,10728.5
2019-01-27T09:00:01.101Z,11670.3
2019-01-27T09:01:01.108Z,12682.7
2019-01-27T09:02:01.241Z,13850.3
2019-01-27T09:03:01.127Z,15098.8
2019-01-27T09:04:01.104Z,16267.2
2019-01-27T09:05:01.103Z,17329.9
2019-01-27T09:06:06.102Z,18284.8
2019-01-27T09:07:01.244Z,19121.7
2019-01-27T09:08:01.099Z,19811.5
2019-01-27T09:09:01.107Z,20277.1
2019-01-27T09:10:01.102Z,20376.5
2019-01-27T09:11:01.129Z,20270.3
2019-01-27T09:12:01.250Z,20034.5
2019-01-27T09:13:01.105Z,19677.6
2019-01-27T09:15:01.113Z,19223.1
2019-01-27T09:16:01.115Z,18779.5
2019-01-27T09:17:01.238Z,18421.4
2019-01-27T09:18:01.096Z,18056.2
2019-01-27T09:19:01.091Z,17487.7
2019-01-27T09:20:01.091Z,16978.7
2019-01-27T09:21:01.130Z,16508.2
2019-01-27T09:22:01.487Z,16090.5
2019-01-27T09:23:01.091Z,15803.5
2019-01-27T09:24:01.092Z,15639.9
2019-01-27T09:25:06.095Z,15626.8
2019-01-27T09:26:01.093Z,15902.0
2019-01-27T09:27:01.234Z,16049.7
2019-01-27T09:28:01.092Z,16118.4
2019-01-27T09:29:01.093Z,16247.5
2019-01-27T09:30:01.096Z,16478.9
2019-01-27T09:31:01.098Z,16670.9
2019-01-27T09:32:01.305Z,16681.7
2019-01-27T09:33:01.098Z,16706.3
2019-01-27T09:34:01.095Z,16766.1
2019-01-27T09:35:01.132Z,16969.4
2019-01-27T09:36:01.240Z,17289.3
2019-01-27T09:37:01.265Z,17564.6
2019-01-27T09:38:01.095Z,17664.3
2019-01-27T09:39:01.096Z,17559.9
2019-01-27T09:40:01.573Z,17374.3
2019-01-27T09:41:01.096Z,17007.7
2019-01-27T09:42:01.303Z,16820.4
2019-01-27T09:43:01.096Z,16551.7
2019-01-27T09:44:01.097Z,16220.3
2019-01-27T09:45:01.100Z,15941.3
2019-01-27T09:46:05.336Z,15740.4
2019-01-27T09:47:01.241Z,15565.3
2019-01-27T09:48:01.104Z,15285.3
2019-01-27T09:49:01.097Z,15186.7
2019-01-27T09:50:06.102Z,15158.3
2019-01-27T09:51:01.100Z,15057.1
2019-01-27T09:52:01.241Z,15008.3
2019-01-27T09:53:01.105Z,15014.5
2019-01-27T09:54:01.103Z,15200.1
2019-01-27T09:55:01.131Z,15348.5
2019-01-27T09:56:01.103Z,15458.1
2019-01-27T09:57:01.246Z,15429.9
2019-01-27T09:58:01.099Z,15442.4
2019-01-27T09:59:01.105Z,15462.6
2019-01-27T10:00:06.113Z,15427.3
2019-01-27T10:01:02.127Z,15255.4
2019-01-27T10:02:01.245Z,15054.0
2019-01-27T10:03:01.103Z,14804.9
2019-01-27T10:04:01.105Z,14459.5
2019-01-27T10:05:06.106Z,13923.9
2019-01-27T10:06:01.104Z,13430.3
2019-01-27T10:07:01.247Z,13006.4
2019-01-27T10:08:01.103Z,12638.1
2019-01-27T10:10:01.086Z,12422.2
2019-01-27T10:11:01.085Z,12389.5
2019-01-27T10:12:01.228Z,12533.3
2019-01-27T10:13:01.094Z,12763.3
2019-01-27T10:14:01.092Z,13261.9
2019-01-27T10:15:01.091Z,13802.5
2019-01-27T10:16:01.089Z,14363.5
2019-01-27T10:17:01.234Z,14951.1
2019-01-27T10:18:01.091Z,15564.3
2019-01-27T10:19:01.091Z,16321.0
2019-01-27T10:20:01.093Z,17063.9
2019-01-27T10:21:02.182Z,17733.1
2019-01-27T10:22:01.645Z,18484.0
2019-01-27T10:23:01.095Z,19151.8
2019-01-27T10:24:01.481Z,19966.3
2019-01-27T10:25:01.108Z,20567.1
2019-01-27T10:26:01.093Z,21088.0
2019-01-27T10:27:01.268Z,21631.9
2019-01-27T10:28:01.108Z,22057.8
2019-01-27T10:29:01.097Z,22468.7
2019-01-27T10:30:01.105Z,22752.8
2019-01-27T10:31:01.096Z,23003.7
2019-01-27T10:32:01.264Z,23292.5
2019-01-27T10:33:01.097Z,23523.5
2019-01-27T10:34:01.097Z,23669.4
2019-01-27T10:35:01.104Z,23881.1
2019-01-27T10:36:01.097Z,24114.7
2019-01-27T10:37:01.302Z,24411.2
2019-01-27T10:38:01.136Z,24840.2
2019-01-27T10:39:01.097Z,24875.7
2019-01-27T10:40:08.700Z,25112.4
2019-01-27T10:41:01.100Z,25306.5
2019-01-27T10:42:02.315Z,25560.1
2019-01-27T10:43:01.101Z,26093.6
2019-01-27T10:44:01.101Z,26485.9
2019-01-27T10:45:01.099Z,26943.3
2019-01-27T10:46:01.103Z,27628.5
2019-01-27T10:47:01.248Z,28353.1
2019-01-27T10:48:01.127Z,29165.5
2019-01-27T10:49:01.100Z,29831.3
2019-01-27T10:50:01.100Z,30635.5
2019-01-27T10:51:01.102Z,31188.1
2019-01-27T10:52:01.243Z,31523.9
2019-01-27T10:53:01.126Z,32072.2
2019-01-27T10:54:01.103Z,33086.1
2019-01-27T10:55:01.103Z,33789.4
2019-01-27T10:56:01.107Z,34631.6
2019-01-27T10:57:01.248Z,35084.8
2019-01-27T10:58:06.107Z,35473.0
2019-01-27T11:00:01.087Z,35869.7
2019-01-27T11:01:01.089Z,36067.1
2019-01-27T11:02:01.236Z,36037.3
2019-01-27T11:03:02.313Z,35628.6
2019-01-27T11:04:01.090Z,35318.9
2019-01-27T11:05:01.087Z,35254.9
2019-01-27T11:06:01.100Z,34746.3
2019-01-27T11:07:01.303Z,34649.3
2019-01-27T11:08:01.150Z,34793.0
2019-01-27T11:09:01.120Z,34767.6
2019-01-27T11:10:01.094Z,34554.3
2019-01-27T11:11:01.094Z,34454.7
2019-01-27T11:12:01.301Z,34211.5
2019-01-27T11:13:01.088Z,34004.3
2019-01-27T11:14:01.122Z,33579.9
2019-01-27T11:15:01.095Z,33193.3
2019-01-27T11:16:01.127Z,32883.7
2019-01-27T11:17:01.300Z,32621.4
2019-01-27T11:18:01.108Z,32834.5
2019-01-27T11:19:01.122Z,32874.3
2019-01-27T11:20:01.099Z,32821.5
2019-01-27T11:21:01.096Z,32990.1
2019-01-27T11:22:01.257Z,33060.9
2019-01-27T11:23:01.313Z,33043.1
2019-01-27T11:24:06.096Z,32996.9
2019-01-27T11:25:01.103Z,32893.8
2019-01-27T11:26:01.863Z,33020.1
2019-01-27T11:27:01.240Z,33283.6
2019-01-27T11:28:01.098Z,33662.9
2019-01-27T11:29:01.122Z,34197.3
2019-01-27T11:30:01.164Z,34638.8
2019-01-27T11:31:01.095Z,34933.7
2019-01-27T11:32:01.234Z,35113.9
2019-01-27T11:33:02.545Z,35179.3
2019-01-27T11:34:01.126Z,35181.1
2019-01-27T11:35:01.147Z,35150.1
2019-01-27T11:36:01.103Z,35061.9
2019-01-27T11:37:01.325Z,34885.7
2019-01-27T11:38:01.100Z,34678.6
2019-01-27T11:39:06.098Z,34427.9
2019-01-27T11:40:01.102Z,34178.5
2019-01-27T11:41:01.095Z,33696.8
2019-01-27T11:42:01.422Z,33116.7
2019-01-27T11:43:06.097Z,32522.9
2019-01-27T11:44:01.100Z,31757.9
2019-01-27T11:45:01.100Z,30880.5
2019-01-27T11:46:01.095Z,30295.7
2019-01-27T11:47:01.249Z,29866.3
2019-01-27T11:48:06.101Z,29449.1
2019-01-27T11:49:01.612Z,29077.9
2019-01-27T11:50:01.100Z,28720.0
2019-01-27T11:51:01.163Z,28405.6
2019-01-27T11:52:01.245Z,28147.9
2019-01-27T11:53:01.099Z,27758.5
2019-01-27T11:54:01.101Z,27339.5
2019-01-27T11:55:01.138Z,27028.2
2019-01-27T11:56:01.099Z,26885.0
2019-01-27T11:57:01.315Z,26817.7
2019-01-27T11:58:01.101Z,27170.0
2019-01-27T11:59:01.101Z,27737.8
2019-01-27T12:00:06.105Z,28412.3
2019-01-27T12:01:01.107Z,29173.4
2019-01-27T12:02:01.245Z,29927.6
2019-01-27T12:03:01.102Z,30660.0
2019-01-27T12:04:01.104Z,31312.6
2019-01-27T12:05:06.104Z,31957.1
2019-01-27T12:06:01.100Z,32758.3
2019-01-27T12:07:01.245Z,33788.5
2019-01-27T12:08:01.103Z,35002.6
2019-01-27T12:09:01.517Z,36324.3
2019-01-27T12:10:01.139Z,37475.7
2019-01-27T12:11:01.104Z,38592.5
2019-01-27T12:13:01.233Z,40001.9
2019-01-27T12:14:01.092Z,41165.7
2019-01-27T12:15:01.152Z,42067.6
2019-01-27T12:16:01.092Z,43186.2
2019-01-27T12:17:01.089Z,44026.9
2019-01-27T12:18:01.240Z,44236.4
2019-01-27T12:19:01.092Z,44493.6
2019-01-27T12:20:01.121Z,44765.1
2019-01-27T12:21:01.094Z,45075.1
2019-01-27T12:22:06.098Z,45396.8
2019-01-27T12:23:01.302Z,45562.3
2019-01-27T12:24:01.097Z,45735.0
2019-01-27T12:25:01.095Z,45743.4
2019-01-27T12:26:01.092Z,45642.8
2019-01-27T12:27:01.120Z,45379.3
2019-01-27T12:28:01.249Z,45028.8
2019-01-27T12:29:01.095Z,44206.6
2019-01-27T12:30:01.102Z,43244.8
2019-01-27T12:31:01.094Z,41915.1
2019-01-27T12:32:06.111Z,40806.8
2019-01-27T12:33:01.371Z,40150.2
2019-01-27T12:34:01.094Z,39573.1
2019-01-27T12:35:01.097Z,39232.3
2019-01-27T12:36:01.096Z,38786.5
2019-01-27T12:37:06.097Z,38402.1
2019-01-27T12:38:01.248Z,37925.1
2019-01-27T12:39:01.100Z,37275.9
2019-01-27T12:40:01.098Z,36746.9
2019-01-27T12:41:01.098Z,36505.4
2019-01-27T12:42:01.131Z,36146.9
2019-01-27T12:43:01.244Z,35322.7
2019-01-27T12:44:01.101Z,34872.5
2019-01-27T12:45:01.152Z,34640.0
2019-01-27T12:46:01.101Z,34523.3
2019-01-27T12:47:01.127Z,34275.7
2019-01-27T12:48:01.246Z,34168.9
2019-01-27T12:49:01.106Z,33979.5
2019-01-27T12:51:01.122Z,33720.3
2019-01-27T12:52:01.092Z,33473.6
2019-01-27T12:53:01.273Z,32944.1
2019-01-27T12:54:01.088Z,32290.1
2019-01-27T12:55:01.102Z,31594.7
2019-01-27T12:56:01.087Z,30636.9
2019-01-27T12:57:06.095Z,29493.2
2019-01-27T12:58:01.234Z,28560.9
2019-01-27T12:59:01.091Z,27860.7
2019-01-27T13:00:01.091Z,27203.1
2019-01-27T13:01:01.089Z,26674.8
2019-01-27T13:02:01.124Z,26203.7
2019-01-27T13:03:01.235Z,25854.3
2019-01-27T13:04:01.094Z,25665.6
2019-01-27T13:05:01.149Z,25366.3
2019-01-27T13:06:01.120Z,25170.5
2019-01-27T13:07:01.091Z,25000.9
2019-01-27T13:08:01.277Z,24845.0
2019-01-27T13:09:01.096Z,24622.4
2019-01-27T13:10:01.092Z,24406.7
2019-01-27T13:11:06.097Z,24412.6
2019-01-27T13:12:01.094Z,24714.5
2019-01-27T13:13:01.234Z,25192.3
2019-01-27T13:14:01.094Z,25560.7
2019-01-27T13:15:01.141Z,25801.6
2019-01-27T13:16:06.096Z,26119.9
2019-01-27T13:17:01.161Z,26499.3
2019-01-27T13:18:01.239Z,26788.9
2019-01-27T13:19:01.099Z,26723.4
2019-01-27T13:20:01.096Z,26501.6
2019-01-27T13:21:06.092Z,26072.3
2019-01-27T13:22:01.099Z,25723.5
2019-01-27T13:23:01.234Z,25624.4
2019-01-27T13:24:01.092Z,25735.1
2019-01-27T13:25:06.099Z,25731.7
2019-01-27T13:26:01.095Z,25727.8
2019-01-27T13:27:01.096Z,25602.3
2019-01-27T13:28:01.313Z,25342.9
2019-01-27T13:29:01.096Z,25069.3
2019-01-27T13:30:01.093Z,24689.7
2019-01-27T13:31:02.081Z,24244.0
2019-01-27T13:32:01.098Z,24112.3
2019-01-27T13:33:03.227Z,24285.5
2019-01-27T13:34:01.097Z,24386.0
2019-01-27T13:35:01.096Z,24756.7
2019-01-27T13:36:01.101Z,25607.9
2019-01-27T13:37:01.100Z,26745.7
2019-01-27T13:38:01.308Z,27602.8
2019-01-27T13:39:01.103Z,28171.9
2019-01-27T13:40:06.097Z,28528.5
2019-01-27T13:41:01.098Z,28623.1
2019-01-27T13:42:01.098Z,28960.3
2019-01-27T13:43:01.241Z,29514.7
2019-01-27T13:44:01.100Z,30238.5
2019-01-27T13:45:01.099Z,31100.6
2019-01-27T13:46:01.165Z,31450.2
2019-01-27T13:47:01.103Z,31290.3
2019-01-27T13:48:01.242Z,31218.7
2019-01-27T13:49:01.102Z,31354.2
2019-01-27T13:50:01.101Z,31712.7
2019-01-27T13:51:01.101Z,31472.4
2019-01-27T13:52:01.101Z,30444.5
2019-01-27T13:53:01.246Z,29397.1
2019-01-27T13:54:01.132Z,28643.5
2019-01-27T13:55:01.156Z,28286.1
2019-01-27T13:56:01.102Z,27997.3
2019-01-27T13:57:01.100Z,27293.5
2019-01-27T13:58:01.241Z,26359.9
2019-01-27T13:59:06.108Z,25360.5
2019-01-27T14:00:01.106Z,24595.9
2019-01-27T14:01:01.100Z,24319.7
2019-01-27T14:02:01.104Z,23815.9
2019-01-27T14:03:01.248Z,22884.9
2019-01-27T14:04:01.139Z,21961.2
2019-01-27T14:05:02.703Z,20621.5
2019-01-27T14:06:01.105Z,19409.3
2019-01-27T14:07:01.101Z,18623.6
2019-01-27T14:09:01.265Z,17976.3
2019-01-27T14:10:01.089Z,17266.7
2019-01-27T14:11:01.085Z,16517.7
2019-01-27T14:12:01.427Z,15901.2
2019-01-27T14:13:01.085Z,15361.4
2019-01-27T14:14:01.331Z,14827.8
2019-01-27T14:15:01.087Z,14252.3
2019-01-27T14:16:01.088Z,13477.1
2019-01-27T14:17:01.088Z,12568.3
2019-01-27T14:18:01.088Z,11991.7
2019-01-27T14:19:01.324Z,11567.3
2019-01-27T14:20:01.093Z,11134.5
2019-01-27T14:21:01.087Z,10859.2
2019-01-27T14:22:01.126Z,10653.6
2019-01-27T14:23:01.094Z,10506.9
2019-01-27T14:24:01.234Z,10349.1
2019-01-27T14:25:01.097Z,10219.4
2019-01-27T14:26:01.092Z,10085.3
2019-01-27T14:27:01.085Z,9928.1
2019-01-27T14:28:01.090Z,9752.0
2019-01-27T14:29:01.239Z,9504.8
2019-01-27T14:30:01.114Z,9257.0
2019-01-27T14:31:01.089Z,9012.1
2019-01-27T14:32:01.237Z,8845.7
2019-01-27T14:33:01.093Z,8666.4
2019-01-27T14:34:01.289Z,8394.5
2019-01-27T14:35:01.118Z,8165.2
2019-01-27T14:36:01.096Z,7914.3
2019-01-27T14:37:01.092Z,7672.1
2019-01-27T14:38:01.093Z,7432.3
2019-01-27T14:39:01.262Z,7211.7
2019-01-27T14:40:01.064Z,7056.0
2019-01-27T14:41:01.095Z,6932.1
2019-01-27T14:42:01.097Z,6861.1
2019-01-27T14:43:01.096Z,6846.1
2019-01-27T14:44:01.263Z,6871.0
2019-01-27T14:45:01.093Z,6931.9
2019-01-27T14:46:01.096Z,7014.6
2019-01-27T14:47:01.098Z,7051.4
2019-01-27T14:48:01.124Z,7111.6
2019-01-27T14:49:01.251Z,7204.2
2019-01-27T14:50:01.097Z,7268.9
2019-01-27T14:51:01.094Z,7313.9
2019-01-27T14:52:01.097Z,7363.9
2019-01-27T14:53:06.100Z,7352.9
2019-01-27T14:54:01.302Z,7355.4
2019-01-27T14:55:01.097Z,7380.2
2019-01-27T14:56:01.104Z,7391.3
2019-01-27T14:57:01.102Z,7323.5
2019-01-27T14:58:06.114Z,7256.7
2019-01-27T14:59:01.248Z,7151.9
2019-01-27T15:00:01.162Z,7030.6
2019-01-27T15:01:01.102Z,6960.6
2019-01-27T15:02:01.098Z,6956.0
2019-01-27T15:03:01.129Z,6963.7
2019-01-27T15:04:01.307Z,7006.9
2019-01-27T15:05:01.101Z,7062.4
2019-01-27T15:06:01.104Z,7055.5
2019-01-27T15:07:01.135Z,7015.9
2019-01-27T15:08:01.162Z,7009.8
2019-01-27T15:09:01.248Z,6982.5
2019-01-27T15:10:01.103Z,6873.1
2019-01-27T15:11:01.100Z,6800.1
2019-01-27T15:12:01.137Z,6744.5
2019-01-27T15:13:01.102Z,6687.8
2019-01-27T15:14:02.230Z,6639.2
2019-01-27T15:15:01.110Z,6598.2
2019-01-27T15:16:01.101Z,6504.6
2019-01-27T15:17:01.136Z,6400.3
2019-01-27T15:18:01.100Z,6261.2
2019-01-27T15:19:01.254Z,6064.1
2019-01-27T15:20:01.100Z,5845.4
2019-01-27T15:21:01.101Z,5666.6
2019-01-27T15:22:01.137Z,5493.0
2019-01-27T15:23:01.101Z,5313.3
2019-01-27T15:24:01.246Z,5105.5
2019-01-27T15:26:01.096Z,4911.6
2019-01-27T15:27:01.089Z,4680.9
2019-01-27T15:28:01.115Z,4469.3
2019-01-27T15:29:01.126Z,4217.3
2019-01-27T15:30:01.233Z,3975.3
2019-01-27T15:31:01.085Z,3727.9
2019-01-27T15:32:01.090Z,3504.4
2019-01-27T15:33:01.126Z,3283.8
2019-01-27T15:34:01.094Z,3078.5
2019-01-27T15:35:01.261Z,2901.5
2019-01-27T15:36:01.096Z,2725.8
2019-01-27T15:37:01.092Z,2554.6
2019-01-27T15:38:01.090Z,2377.1
2019-01-27T15:39:01.092Z,2198.6
2019-01-27T15:40:01.239Z,2064.9
2019-01-27T15:41:01.097Z,1931.1
2019-01-27T15:42:01.093Z,1811.2
2019-01-27T15:43:01.124Z,1708.1
2019-01-27T15:44:01.095Z,1615.9
2019-01-27T15:45:01.356Z,1515.2
2019-01-27T15:46:01.097Z,1410.9
2019-01-27T15:47:01.098Z,1311.5
2019-01-27T15:48:06.095Z,1206.6
2019-01-27T15:49:01.096Z,1101.3
2019-01-27T15:50:01.241Z,994.8
2019-01-27T15:51:01.098Z,896.9
2019-01-27T15:52:01.099Z,810.7
2019-01-27T15:53:06.099Z,724.5
2019-01-27T15:54:01.097Z,647.9
2019-01-27T15:55:01.240Z,575.8
2019-01-27T15:56:01.100Z,515.1
2019-01-27T15:57:01.098Z,466.7
2019-01-27T15:58:01.124Z,426.5
2019-01-27T15:59:01.155Z,389.5
2019-01-27T16:00:01.283Z,359.1
2019-01-27T16:01:01.101Z,331.5
2019-01-27T16:02:01.133Z,304.2
2019-01-27T16:03:01.102Z,281.5
2019-01-27T16:04:01.104Z,257.9
2019-01-27T16:05:01.248Z,237.5
2019-01-27T16:06:01.105Z,219.7
2019-01-27T16:07:06.107Z,201.5
2019-01-27T16:08:01.099Z,186.8
2019-01-27T16:09:01.102Z,172.1
2019-01-27T16:10:01.718Z,158.0
2019-01-27T16:11:01.117Z,145.0
2019-01-27T16:12:01.127Z,132.7
2019-01-27T16:14:01.235Z,120.1
2019-01-27T16:15:01.228Z,108.5
2019-01-27T16:16:01.086Z,98.4
2019-01-27T16:17:01.123Z,88.5
2019-01-27T16:18:01.090Z,78.3
2019-01-27T16:19:01.091Z,68.8
2019-01-27T16:20:01.280Z,60.1
2019-01-27T16:21:01.092Z,51.5
2019-01-27T16:22:01.092Z,43.6
2019-01-27T16:23:01.094Z,36.6
2019-01-27T16:24:01.090Z,30.3
2019-01-27T16:25:01.263Z,25.1
2019-01-27T16:26:01.086Z,20.9
2019-01-27T16:27:01.088Z,17.0
2019-01-27T16:28:01.089Z,13.5
2019-01-27T16:29:01.092Z,11.4
2019-01-27T16:30:01.310Z,9.6
2019-01-27T16:31:01.088Z,8.1
2019-01-27T16:32:01.092Z,6.9
2019-01-27T16:33:01.096Z,5.9
2019-01-27T16:34:01.145Z,5.1
2019-01-27T16:35:01.300Z,4.4
2019-01-27T16:36:01.092Z,3.9
2019-01-27T16:37:01.096Z,3.4
2019-01-27T16:38:01.090Z,3.0
2019-01-27T16:39:01.099Z,2.7
2019-01-27T16:40:01.270Z,2.3
2019-01-27T16:41:01.091Z,2.1
2019-01-27T16:42:01.095Z,1.9
2019-01-27T16:43:01.097Z,1.7
2019-01-27T16:44:01.091Z,1.5
2019-01-27T16:45:01.274Z,1.3
2019-01-27T16:46:01.128Z,1.2
2019-01-27T16:47:01.094Z,1.0
2019-01-27T16:48:01.093Z,0.9
2019-01-27T16:49:01.099Z,0.7
2019-01-27T16:50:02.192Z,0.6
2019-01-27T16:51:01.100Z,0.5
2019-01-27T16:53:01.096Z,0.4
2019-01-27T16:54:01.095Z,0.3
2019-01-27T16:56:01.306Z,0.2
2019-01-27T16:57:01.095Z,0.1
